Time;durP1;ratioP1;P1;durP2;ratioP2;P2;SDS_P1;SDS_P2;PMS_P1;PMS_P2;Temp;Humidity;BMP_temperature;BMP_pressure;BME280_temperature;BME280_humidity;BME280_pressure;Samples;Min_cycle;Max_cycle;Signal;HPM_P1;HPM_P2
2023/05/10 00:02:20;;;;;;;13.25;10.00;;;;;;;;;;5151835;27;20385;-76
2023/05/10 00:04:46;;;;;;;15.38;11.27;;;;;;;;;;5152819;27;20055;-72
2023/05/10 00:07:12;;;;;;;;;;;;;;;;;;5150311;27;20053;-72
2023/05/10 00:09:38;;;;;;;14.82;10.50;;;;;;;;;;5099085;28;19923;-72
2023/05/10 00:12:04;;;;;;;;;;;;;;;;;;5110330;28;20142;-74
2023/05/10 00:14:30;;;;;;;16.10;10.77;;;;;;;;;;5093199;28;19926;-73
2023/05/10 00:16:56;;;;;;;;;;;;;;;;;;5094097;28;20130;-72
2023/05/10 00:19:22;;;;;;;16.58;10.43;;;;;;;;;;5110318;28;20601;-73
2023/05/10 00:21:48;;;;;;;;;;;;;;;;;;5075842;28;20142;-72
2023/05/10 00:24:15;;;;;;;16.45;10.07;;;;;;;;;;5129214;27;20002;-72
2023/05/10 00:26:42;;;;;;;;;;;;;;;;;;5131744;27;20127;-73
2023/05/10 00:29:08;;;;;;;16.00;10.07;;;;;;;;;;5137155;27;19991;-73
2023/05/10 00:31:34;;;;;;;;;;;;;;;;;;5152220;27;20125;-73
2023/05/10 00:34:00;;;;;;;18.88;9.98;;;;;;;;;;5151325;27;20353;-72
2023/05/10 00:36:27;;;;;;;;;;;;;;;;;;5119181;27;20116;-74
2023/05/10 00:38:53;;;;;;;17.13;10.63;;;;;;;;;;5131368;27;19971;-72
2023/05/10 00:41:20;;;;;;;;;;;;;;;;;;5114265;27;20053;-72
2023/05/10 00:43:47;;;;;;;16.42;10.80;;;;;;;;;;5129437;27;20002;-73
2023/05/10 00:46:14;;;;;;;19.70;11.25;;;;;;;;;;5130863;27;20047;-73
2023/05/10 00:48:41;;;;;;;18.75;11.60;;;;;;;;;;5129944;27;20104;-72
2023/05/10 00:51:07;;;;;;;;;;;;;;;;;;5130212;27;20507;-72
2023/05/10 00:53:34;;;;;;;19.67;11.15;;;;;;;;;;5113366;27;19919;-72
2023/05/10 00:56:01;;;;;;;16.60;10.35;;;;;;;;;;5114023;27;20035;-72
2023/05/10 00:58:28;;;;;;;16.23;10.75;;;;;;;;;;5111926;27;20058;-72
2023/05/10 01:00:58;;;;;;;19.30;11.00;;;;;;;;;;5132028;27;20039;-72
2023/05/10 01:03:25;;;;;;;16.67;11.02;;;;;;;;;;5130244;27;20050;-75
2023/05/10 01:05:51;;;;;;;19.27;11.93;;;;;;;;;;5129701;27;20046;-72
2023/05/10 01:08:17;;;;;;;;;;;;;;;;;;5130071;27;20146;-72
2023/05/10 01:10:43;;;;;;;19.33;11.63;;;;;;;;;;5131626;27;20766;-72
2023/05/10 01:13:10;;;;;;;16.75;11.45;;;;;;;;;;5130452;27;20050;-73
2023/05/10 01:15:36;;;;;;;22.10;11.85;;;;;;;;;;5109467;27;20126;-72
2023/05/10 01:18:03;;;;;;;20.27;12.45;;;;;;;;;;5137840;27;20054;-73
2023/05/10 01:20:32;;;;;;;22.70;13.02;;;;;;;;;;5130379;27;20797;-72
2023/05/10 01:23:11;;;;;;;19.75;12.38;;;;;;;;;;5131674;27;20082;-72
2023/05/10 01:25:44;;;;;;;23.17;12.70;;;;;;;;;;5112800;27;20795;-73
2023/05/10 01:28:29;;;;;;;24.17;13.85;;;;;;;;;;5112065;27;20054;-72
2023/05/10 01:31:14;;;;;;;20.45;12.50;;;;;;;;;;5119284;27;20039;-72
2023/05/10 01:33:43;;;;;;;21.13;13.02;;;;;;;;;;5128717;27;20061;-73
2023/05/10 01:36:16;;;;;;;21.63;12.82;;;;;;;;;;5129862;27;20073;-72
2023/05/10 01:38:50;;;;;;;20.85;12.70;;;;;;;;;;5112303;27;20058;-73
2023/05/10 01:41:28;;;;;;;21.42;11.88;;;;;;;;;;5131542;27;20043;-72
2023/05/10 01:43:58;;;;;;;21.80;12.80;;;;;;;;;;5112799;27;20122;-73
2023/05/10 01:46:27;;;;;;;20.88;12.10;;;;;;;;;;5131163;27;20047;-72
2023/05/10 01:48:55;;;;;;;22.58;12.15;;;;;;;;;;5131137;27;20050;-72
2023/05/10 01:51:24;;;;;;;21.73;12.60;;;;;;;;;;5129917;28;20425;-73
2023/05/10 01:53:52;;;;;;;20.90;12.45;;;;;;;;;;5112582;28;20079;-73
2023/05/10 01:56:21;;;;;;;20.33;12.35;;;;;;;;;;5131414;28;20080;-72
2023/05/10 01:58:48;;;;;;;20.13;11.50;;;;;;;;;;5111671;28;20158;-72
2023/05/10 02:01:14;;;;;;;21.55;11.35;;;;;;;;;;5131171;28;20073;-72
2023/05/10 02:03:41;;;;;;;21.13;11.63;;;;;;;;;;5130390;28;20039;-72
2023/05/10 02:06:08;;;;;;;20.35;11.68;;;;;;;;;;5095544;28;20084;-72
2023/05/10 02:08:36;;;;;;;20.83;10.88;;;;;;;;;;5131044;27;20051;-73
2023/05/10 02:11:03;;;;;;;22.42;11.73;;;;;;;;;;5138959;27;20039;-72
2023/05/10 02:13:32;;;;;;;18.48;10.45;;;;;;;;;;5142310;27;20046;-76
2023/05/10 02:15:59;;;;;;;21.48;10.75;;;;;;;;;;5129658;28;20039;-72
2023/05/10 02:18:26;;;;;;;18.67;10.07;;;;;;;;;;5110580;27;20103;-72
2023/05/10 02:20:53;;;;;;;17.17;10.20;;;;;;;;;;5113911;27;20043;-72
2023/05/10 02:23:20;;;;;;;18.92;10.57;;;;;;;;;;5135062;27;20043;-73
2023/05/10 02:25:48;;;;;;;17.23;10.18;;;;;;;;;;5116557;27;20051;-72
2023/05/10 02:28:15;;;;;;;17.33;9.88;;;;;;;;;;5134597;27;20046;-72
2023/05/10 02:30:41;;;;;;;17.85;9.75;;;;;;;;;;5134708;27;20047;-73
2023/05/10 02:33:07;;;;;;;18.63;10.15;;;;;;;;;;5135554;27;20051;-72
2023/05/10 02:35:34;;;;;;;19.38;9.43;;;;;;;;;;5134149;27;20097;-75
2023/05/10 02:38:01;;;;;;;16.85;9.93;;;;;;;;;;5133606;27;20051;-72
2023/05/10 02:40:28;;;;;;;15.02;8.65;;;;;;;;;;5135132;27;20083;-72
2023/05/10 02:42:56;;;;;;;13.52;8.30;;;;;;;;;;5133414;27;20593;-73
2023/05/10 02:45:24;;;;;;;16.00;9.38;;;;;;;;;;5134870;27;20108;-72
2023/05/10 02:47:50;;;;;;;14.85;8.77;;;;;;;;;;5134029;27;20183;-72
2023/05/10 02:50:16;;;;;;;;;;;;;;;;;;5135045;27;20068;-72
2023/05/10 02:52:48;;;;;;;15.88;9.05;;;;;;;;;;5135740;27;19923;-72
2023/05/10 02:55:15;;;;;;;15.50;8.68;;;;;;;;;;5116391;27;20051;-72
2023/05/10 02:57:44;;;;;;;17.58;9.23;;;;;;;;;;5133401;27;20046;-72
2023/05/10 03:00:10;;;;;;;16.48;8.68;;;;;;;;;;5134605;27;20494;-71
2023/05/10 03:02:36;;;;;;;14.48;8.10;;;;;;;;;;5113111;27;20042;-75
2023/05/10 03:05:03;;;;;;;;;;;;;;;;;;5155802;27;20042;-72
2023/05/10 03:07:29;;;;;;;15.30;8.37;;;;;;;;;;5129866;27;19926;-72
2023/05/10 03:09:55;;;;;;;16.55;8.25;;;;;;;;;;5134178;27;20043;-72
2023/05/10 03:12:21;;;;;;;;;;;;;;;;;;5134854;27;20043;-72
2023/05/10 03:14:54;;;;;;;15.85;9.05;;;;;;;;;;5145759;27;20010;-72
2023/05/10 03:17:24;;;;;;;17.70;9.93;;;;;;;;;;5154645;27;20047;-73
2023/05/10 03:19:54;;;;;;;14.57;8.30;;;;;;;;;;5136377;27;20403;-72
2023/05/10 03:22:41;;;;;;;16.70;8.77;;;;;;;;;;5152720;27;20039;-72
2023/05/10 03:25:08;;;;;;;14.27;8.37;;;;;;;;;;5134067;27;20049;-72
2023/05/10 03:27:36;;;;;;;15.55;8.68;;;;;;;;;;5133214;27;20320;-72
2023/05/10 03:30:02;;;;;;;16.63;8.82;;;;;;;;;;5133675;27;20152;-72
2023/05/10 03:32:31;;;;;;;15.32;8.40;;;;;;;;;;5132545;27;20063;-72
2023/05/10 03:34:57;;;;;;;15.23;8.35;;;;;;;;;;5133495;27;20100;-72
2023/05/10 03:37:23;;;;;;;;;;;;;;;;;;5118835;27;20051;-72
2023/05/10 03:39:49;;;;;;;14.88;7.72;;;;;;;;;;5135950;27;20465;-72
2023/05/10 03:42:17;;;;;;;;;;;;;;;;;;5135694;27;20489;-72
2023/05/10 03:44:43;;;;;;;14.82;7.93;;;;;;;;;;5146099;27;20009;-72
2023/05/10 03:47:09;;;;;;;;;;;;;;;;;;5136269;27;20039;-74
2023/05/10 03:49:35;;;;;;;14.43;8.00;;;;;;;;;;5154434;27;19926;-73
2023/05/10 03:52:02;;;;;;;14.63;8.45;;;;;;;;;;5153614;27;20039;-72
2023/05/10 03:54:28;;;;;;;15.82;7.95;;;;;;;;;;5153935;27;20091;-72
2023/05/10 03:56:54;;;;;;;13.45;8.07;;;;;;;;;;5133377;27;20050;-72
2023/05/10 03:59:20;;;;;;;13.98;8.43;;;;;;;;;;5132991;27;20103;-72
2023/05/10 04:01:46;;;;;;;;;;;;;;;;;;5132108;27;20051;-73
2023/05/10 04:04:12;;;;;;;15.77;8.18;;;;;;;;;;5130092;27;19926;-72
2023/05/10 04:06:38;;;;;;;;;;;;;;;;;;5133575;27;20111;-72
2023/05/10 04:09:05;;;;;;;13.20;8.02;;;;;;;;;;5140411;27;19923;-72
2023/05/10 04:11:31;;;;;;;12.82;8.27;;;;;;;;;;5153769;27;20467;-72
2023/05/10 04:13:57;;;;;;;;;;;;;;;;;;5153541;27;20508;-73
2023/05/10 04:16:23;;;;;;;15.25;9.00;;;;;;;;;;5153389;27;20010;-73
2023/05/10 04:18:49;;;;;;;15.05;8.68;;;;;;;;;;5117507;27;20106;-72
2023/05/10 04:21:15;;;;;;;;;;;;;;;;;;5152863;27;20495;-73
2023/05/10 04:23:44;;;;;;;14.95;8.73;;;;;;;;;;5152244;27;19923;-72
2023/05/10 04:26:10;;;;;;;15.00;8.82;;;;;;;;;;5132888;27;20477;-72
2023/05/10 04:28:36;;;;;;;;;;;;;;;;;;5133915;27;20049;-73
2023/05/10 04:31:10;;;;;;;14.07;8.75;;;;;;;;;;5132373;27;19923;-73
2023/05/10 04:33:36;;;;;;;16.13;9.65;;;;;;;;;;5131997;27;20062;-73
2023/05/10 04:36:03;;;;;;;18.73;10.00;;;;;;;;;;5131705;27;20049;-72
2023/05/10 04:38:29;;;;;;;18.40;10.55;;;;;;;;;;5131984;27;20554;-72
2023/05/10 04:41:04;;;;;;;17.50;9.77;;;;;;;;;;5114237;27;20047;-73
2023/05/10 04:43:30;;;;;;;18.65;10.15;;;;;;;;;;5130653;27;20055;-73
2023/05/10 04:45:59;;;;;;;17.10;10.10;;;;;;;;;;5115786;27;20039;-73
2023/05/10 04:48:25;;;;;;;19.20;10.50;;;;;;;;;;5133388;27;20043;-73
2023/05/10 04:50:51;;;;;;;;;;;;;;;;;;5113988;27;20054;-73
2023/05/10 04:53:17;;;;;;;22.08;9.95;;;;;;;;;;5093486;28;19920;-73
2023/05/10 04:55:43;;;;;;;15.85;9.13;;;;;;;;;;5110698;28;20063;-72
2023/05/10 04:58:10;;;;;;;;;;;;;;;;;;5119174;27;20122;-73
2023/05/10 05:00:36;;;;;;;18.15;9.57;;;;;;;;;;5153046;27;19923;-73
2023/05/10 05:03:02;;;;;;;16.75;9.75;;;;;;;;;;5133692;27;20050;-73
2023/05/10 05:05:28;;;;;;;17.05;10.05;;;;;;;;;;5134251;27;20058;-72
2023/05/10 05:07:54;;;;;;;;;;;;;;;;;;5127312;27;20055;-72
2023/05/10 05:10:20;;;;;;;17.40;9.75;;;;;;;;;;5125645;27;20018;-72
2023/05/10 05:12:46;;;;;;;;;;;;;;;;;;5152336;27;20042;-72
2023/05/10 05:15:12;;;;;;;17.13;9.32;;;;;;;;;;5152307;27;20017;-72
2023/05/10 05:17:38;;;;;;;;;;;;;;;;;;5117364;27;20058;-72
2023/05/10 05:20:05;;;;;;;18.25;9.13;;;;;;;;;;5150598;27;19919;-73
2023/05/10 05:22:31;;;;;;;15.30;8.82;;;;;;;;;;5132129;27;20035;-73
2023/05/10 05:24:58;;;;;;;;;;;;;;;;;;5134248;27;20545;-73
2023/05/10 05:27:25;;;;;;;15.73;9.07;;;;;;;;;;5133518;27;20005;-73
2023/05/10 05:29:55;;;;;;;14.20;8.57;;;;;;;;;;5152030;27;20042;-75
2023/05/10 05:32:22;;;;;;;16.33;8.20;;;;;;;;;;5135738;27;20059;-73
2023/05/10 05:34:48;;;;;;;14.25;8.07;;;;;;;;;;5137307;27;20671;-73
2023/05/10 05:37:14;;;;;;;;;;;;;;;;;;5113228;27;20126;-72
2023/05/10 05:39:40;;;;;;;17.10;8.43;;;;;;;;;;5131883;27;20667;-73
2023/05/10 05:42:06;;;;;;;15.07;8.32;;;;;;;;;;5130239;27;20050;-72
2023/05/10 05:44:32;;;;;;;;;;;;;;;;;;5152342;27;20491;-73
2023/05/10 05:46:59;;;;;;;14.80;7.47;;;;;;;;;;5134894;27;19980;-73
2023/05/10 05:49:25;;;;;;;14.43;7.70;;;;;;;;;;5112731;27;20047;-73
2023/05/10 05:51:51;;;;;;;;;;;;;;;;;;5140657;27;20049;-73
2023/05/10 05:54:17;;;;;;;12.65;6.93;;;;;;;;;;5141706;27;19924;-72
2023/05/10 05:56:44;;;;;;;;;;;;;;;;;;5096544;28;20574;-73
2023/05/10 05:59:10;;;;;;;15.32;6.82;;;;;;;;;;5139301;27;19925;-73
2023/05/10 06:01:36;;;;;;;14.23;7.18;;;;;;;;;;5152184;27;20126;-73
2023/05/10 06:04:02;;;;;;;;;;;;;;;;;;5143541;27;20046;-73
2023/05/10 06:06:29;;;;;;;15.43;6.85;;;;;;;;;;5131067;28;19923;-73
2023/05/10 06:08:55;;;;;;;15.15;7.72;;;;;;;;;;5113214;28;20053;-76
2023/05/10 06:11:21;;;;;;;14.75;7.65;;;;;;;;;;5131387;28;20093;-73
2023/05/10 06:13:47;;;;;;;;;;;;;;;;;;5129724;27;20045;-73
2023/05/10 06:16:13;;;;;;;15.65;7.75;;;;;;;;;;5129384;28;20010;-73
2023/05/10 06:18:40;;;;;;;;;;;;;;;;;;5130074;28;20153;-73
2023/05/10 06:21:06;;;;;;;18.50;7.70;;;;;;;;;;5138122;27;20353;-73
2023/05/10 06:23:32;;;;;;;13.45;7.38;;;;;;;;;;5122810;28;20085;-73
2023/05/10 06:25:58;;;;;;;15.20;7.63;;;;;;;;;;5119657;27;20047;-72
2023/05/10 06:28:24;;;;;;;;;;;;;;;;;;5146751;27;20138;-71
2023/05/10 06:30:50;;;;;;;15.80;6.72;;;;;;;;;;5130834;28;20328;-74
2023/05/10 06:33:17;;;;;;;17.25;8.07;;;;;;;;;;5130069;27;20090;-73
2023/05/10 06:35:43;;;;;;;;;;;;;;;;;;5131156;28;20047;-75
2023/05/10 06:38:13;;;;;;;14.30;7.22;;;;;;;;;;5112830;28;19931;-76
2023/05/10 06:40:42;;;;;;;14.43;7.15;;;;;;;;;;5131242;28;20047;-75
2023/05/10 06:43:08;;;;;;;13.95;6.80;;;;;;;;;;5129503;28;20150;-76
2023/05/10 06:45:34;;;;;;;15.57;7.47;;;;;;;;;;5112650;28;20057;-75
2023/05/10 06:48:00;;;;;;;;;;;;;;;;;;5130690;28;20047;-76
2023/05/10 06:50:27;;;;;;;16.63;7.32;;;;;;;;;;5130633;28;20003;-76
2023/05/10 06:52:52;;;;;;;;;;;;;;;;;;5131508;28;20059;-75
2023/05/10 06:55:19;;;;;;;16.92;7.35;;;;;;;;;;5130679;28;19923;-75
2023/05/10 06:57:45;;;;;;;;;;;;;;;;;;5119176;27;20121;-76
2023/05/10 07:00:11;;;;;;;11.70;6.30;;;;;;;;;;5147407;27;19921;-76
2023/05/10 07:02:37;;;;;;;13.15;6.82;;;;;;;;;;5130163;28;20035;-76
2023/05/10 07:05:03;;;;;;;;;;;;;;;;;;5113057;27;20051;-76
2023/05/10 07:07:29;;;;;;;12.18;6.20;;;;;;;;;;5137656;27;19926;-76
2023/05/10 07:09:57;;;;;;;;;;;;;;;;;;5155790;27;20047;-76
2023/05/10 07:12:23;;;;;;;12.07;6.18;;;;;;;;;;5145742;27;20002;-76
2023/05/10 07:14:49;;;;;;;;;;;;;;;;;;5134634;27;20183;-76
2023/05/10 07:17:15;;;;;;;12.30;6.45;;;;;;;;;;5115174;27;20002;-76
2023/05/10 07:19:41;;;;;;;;;;;;;;;;;;5116874;27;20054;-76
2023/05/10 07:22:07;;;;;;;15.82;6.28;;;;;;;;;;5140977;27;20382;-76
2023/05/10 07:24:33;;;;;;;;;;;;;;;;;;5125104;27;20407;-73
2023/05/10 07:26:59;;;;;;;13.23;6.07;;;;;;;;;;5127677;27;19970;-74
2023/05/10 07:29:25;;;;;;;;;;;;;;;;;;5134250;27;20866;-76
2023/05/10 07:31:52;;;;;;;14.55;5.97;;;;;;;;;;5134107;27;19980;-75
2023/05/10 07:34:18;;;;;;;10.18;5.10;;;;;;;;;;5139333;27;20096;-74
2023/05/10 07:36:44;;;;;;;;;;;;;;;;;;5145599;27;20503;-77
2023/05/10 07:39:10;;;;;;;12.05;5.50;;;;;;;;;;5121875;27;19926;-74
2023/05/10 07:41:37;;;;;;;;;;;;;;;;;;5124187;27;20035;-75
2023/05/10 07:44:03;;;;;;;10.25;5.63;;;;;;;;;;5118980;27;19929;-75
2023/05/10 07:46:32;;;;;;;10.55;5.40;;;;;;;;;;5131663;27;20062;-74
2023/05/10 07:48:58;;;;;;;;;;;;;;;;;;5141411;27;20411;-74
2023/05/10 07:51:24;;;;;;;10.00;5.05;;;;;;;;;;5126310;27;20063;-74
2023/05/10 07:53:50;;;;;;;;;;;;;;;;;;5133326;27;20043;-74
2023/05/10 07:56:21;;;;;;;11.93;5.05;;;;;;;;;;5114002;27;19923;-74
2023/05/10 07:58:47;;;;;;;11.43;4.90;;;;;;;;;;5113589;27;20053;-74
2023/05/10 08:01:14;;;;;;;;;;;;;;;;;;5114052;27;20142;-74
2023/05/10 08:03:40;;;;;;;10.93;4.93;;;;;;;;;;5115647;27;19931;-74
2023/05/10 08:06:06;;;;;;;;;;;;;;;;;;5115137;27;20543;-74
2023/05/10 08:08:32;;;;;;;9.13;4.72;;;;;;;;;;5134592;27;20010;-74
2023/05/10 08:10:58;;;;;;;;;;;;;;;;;;5133515;27;20035;-73
2023/05/10 08:13:24;;;;;;;9.80;4.72;;;;;;;;;;5126434;27;20030;-78
2023/05/10 08:15:52;;;;;;;;;;;;;;;;;;5129677;27;20046;-74
2023/05/10 08:18:18;;;;;;;14.20;5.35;;;;;;;;;;5112243;27;19928;-72
2023/05/10 08:20:44;;;;;;;;;;;;;;;;;;5114119;27;20388;-76
2023/05/10 08:23:12;;;;;;;11.55;5.28;;;;;;;;;;5131958;27;19958;-75
2023/05/10 08:25:39;;;;;;;9.60;4.65;;;;;;;;;;5132332;27;20081;-72
2023/05/10 08:28:05;;;;;;;;;;;;;;;;;;5111580;27;20085;-72
2023/05/10 08:30:31;;;;;;;9.77;4.70;;;;;;;;;;5114139;27;19958;-72
2023/05/10 08:32:57;;;;;;;;;;;;;;;;;;5114285;27;20401;-72
2023/05/10 08:35:24;;;;;;;10.05;4.65;;;;;;;;;;5131821;27;19919;-71
2023/05/10 08:37:50;;;;;;;9.05;4.07;;;;;;;;;;5132413;27;20524;-72
2023/05/10 08:40:16;;;;;;;;;;;;;;;;;;5114601;27;20055;-72
2023/05/10 08:42:48;;;;;;;8.68;3.83;;;;;;;;;;5131390;27;19982;-72
2023/05/10 08:45:16;;;;;;;7.57;3.60;;;;;;;;;;5132185;27;20118;-71
2023/05/10 08:47:42;;;;;;;8.93;4.40;;;;;;;;;;5113811;27;20122;-71
2023/05/10 08:50:09;;;;;;;7.95;4.00;;;;;;;;;;5114148;27;20519;-72
2023/05/10 08:52:37;;;;;;;7.57;3.65;;;;;;;;;;5131354;27;20142;-71
2023/05/10 08:55:03;;;;;;;8.15;3.97;;;;;;;;;;5132517;27;20053;-72
2023/05/10 08:57:29;;;;;;;;;;;;;;;;;;5131221;27;20122;-72
2023/05/10 08:59:55;;;;;;;7.68;3.47;;;;;;;;;;5113903;27;20017;-72
2023/05/10 09:02:21;;;;;;;;;;;;;;;;;;5131534;27;20039;-72
2023/05/10 09:04:48;;;;;;;6.95;3.85;;;;;;;;;;5131747;27;19982;-71
2023/05/10 09:07:15;;;;;;;15.00;3.70;;;;;;;;;;5099678;27;20049;-72
2023/05/10 09:09:41;;;;;;;10.02;3.67;;;;;;;;;;5131884;27;20054;-73
2023/05/10 09:12:10;;;;;;;;;;;;;;;;;;5100099;27;20585;-73
2023/05/10 09:14:37;;;;;;;7.82;3.80;;;;;;;;;;5113413;27;20447;-74
2023/05/10 09:17:03;;;;;;;5.93;3.67;;;;;;;;;;5113257;27;20572;-74
2023/05/10 09:19:29;;;;;;;9.27;3.15;;;;;;;;;;5112507;27;20487;-74
2023/05/10 09:21:56;;;;;;;;;;;;;;;;;;5113169;27;20492;-73
2023/05/10 09:24:26;;;;;;;8.90;3.38;;;;;;;;;;5113007;27;19919;-73
2023/05/10 09:26:53;;;;;;;8.85;3.50;;;;;;;;;;5131177;27;20039;-71
2023/05/10 09:29:19;;;;;;;6.43;3.25;;;;;;;;;;5122746;27;20134;-72
2023/05/10 09:31:51;;;;;;;6.72;3.72;;;;;;;;;;5142129;27;20537;-72
2023/05/10 09:34:21;;;;;;;6.82;3.58;;;;;;;;;;5137377;27;20047;-73
2023/05/10 09:37:05;;;;;;;6.68;3.40;;;;;;;;;;5122463;27;20053;-72
2023/05/10 09:39:35;;;;;;;7.10;3.35;;;;;;;;;;5138421;27;20073;-70
2023/05/10 09:42:05;;;;;;;8.65;3.70;;;;;;;;;;5140970;27;20049;-71
2023/05/10 09:44:31;;;;;;;5.72;3.78;;;;;;;;;;5143018;27;21310;-71
2023/05/10 09:46:58;;;;;;;7.20;3.67;;;;;;;;;;5126125;27;20123;-71
2023/05/10 09:49:24;;;;;;;6.85;3.80;;;;;;;;;;5140574;27;20082;-71
2023/05/10 09:51:50;;;;;;;;;;;;;;;;;;5140683;27;20039;-71
2023/05/10 09:54:16;;;;;;;7.47;3.75;;;;;;;;;;5137809;27;19966;-74
2023/05/10 09:56:43;;;;;;;7.05;4.03;;;;;;;;;;5122283;27;20087;-71
2023/05/10 09:59:13;;;;;;;8.73;4.07;;;;;;;;;;5141702;27;20128;-72
2023/05/10 10:01:39;;;;;;;8.15;4.18;;;;;;;;;;5119566;27;20100;-71
2023/05/10 10:04:06;;;;;;;7.50;4.03;;;;;;;;;;5140584;27;20042;-73
2023/05/10 10:06:39;;;;;;;7.85;3.60;;;;;;;;;;5129271;27;20448;-71
2023/05/10 10:09:06;;;;;;;7.35;3.83;;;;;;;;;;5123203;27;20051;-71
2023/05/10 10:11:32;;;;;;;9.40;4.63;;;;;;;;;;5139518;27;20120;-72
2023/05/10 10:13:58;;;;;;;9.05;4.68;;;;;;;;;;5141533;27;20047;-72
2023/05/10 10:16:24;;;;;;;;;;;;;;;;;;5121946;28;20039;-71
2023/05/10 10:18:50;;;;;;;11.95;5.40;;;;;;;;;;5112926;28;19919;-72
2023/05/10 10:21:16;;;;;;;;;;;;;;;;;;5113229;28;20054;-72
2023/05/10 10:23:43;;;;;;;8.60;5.35;;;;;;;;;;5130788;28;19988;-72
2023/05/10 10:26:10;;;;;;;8.13;4.80;;;;;;;;;;5128925;27;20051;-73
2023/05/10 10:28:41;;;;;;;10.05;5.13;;;;;;;;;;5118796;27;20121;-72
2023/05/10 10:31:17;;;;;;;9.23;5.30;;;;;;;;;;5146654;27;20444;-72
2023/05/10 10:33:56;;;;;;;9.75;5.07;;;;;;;;;;5151025;27;20187;-72
2023/05/10 10:36:22;;;;;;;9.32;5.18;;;;;;;;;;5132560;27;20047;-72
2023/05/10 10:38:48;;;;;;;10.30;5.10;;;;;;;;;;5117062;28;20054;-72
2023/05/10 10:41:14;;;;;;;;;;;;;;;;;;5134036;27;20496;-72
2023/05/10 10:43:41;;;;;;;9.30;4.97;;;;;;;;;;5115639;27;19963;-72
2023/05/10 10:46:17;;;;;;;8.65;5.30;;;;;;;;;;5134996;27;20404;-72
2023/05/10 10:48:51;;;;;;;11.18;5.47;;;;;;;;;;5133203;27;20415;-71
2023/05/10 10:51:17;;;;;;;9.27;4.93;;;;;;;;;;5133489;27;20118;-72
2023/05/10 10:53:43;;;;;;;7.68;4.68;;;;;;;;;;5133936;27;20082;-71
2023/05/10 10:56:11;;;;;;;9.82;5.32;;;;;;;;;;5116547;27;20076;-72
2023/05/10 10:58:38;;;;;;;14.57;5.55;;;;;;;;;;5152941;27;20465;-70
2023/05/10 11:01:13;;;;;;;10.30;5.25;;;;;;;;;;5155275;27;20053;-73
2023/05/10 11:03:39;;;;;;;11.07;5.60;;;;;;;;;;5133770;27;20043;-73
2023/05/10 11:06:05;;;;;;;;;;;;;;;;;;5135480;27;20055;-73
2023/05/10 11:08:43;;;;;;;11.30;6.32;;;;;;;;;;5119474;27;19980;-73
2023/05/10 11:11:09;;;;;;;9.93;5.88;;;;;;;;;;5120111;27;20057;-72
2023/05/10 11:13:43;;;;;;;8.77;5.75;;;;;;;;;;5153461;27;20054;-73
2023/05/10 11:16:16;;;;;;;14.25;6.18;;;;;;;;;;5115767;27;20054;-72
2023/05/10 11:18:59;;;;;;;11.05;6.32;;;;;;;;;;5115351;27;20507;-72
2023/05/10 11:21:25;;;;;;;12.57;7.03;;;;;;;;;;5122761;27;20047;-73
2023/05/10 11:23:56;;;;;;;11.73;6.68;;;;;;;;;;5114696;27;20055;-73
2023/05/10 11:26:26;;;;;;;10.77;5.93;;;;;;;;;;5104168;27;20088;-72
2023/05/10 11:28:58;;;;;;;13.00;5.82;;;;;;;;;;5118903;27;20040;-72
2023/05/10 11:31:26;;;;;;;10.38;5.45;;;;;;;;;;5115706;27;20051;-72
2023/05/10 11:33:55;;;;;;;10.27;5.55;;;;;;;;;;5114095;27;20059;-72
2023/05/10 11:36:22;;;;;;;12.23;6.13;;;;;;;;;;5117029;27;20054;-72
2023/05/10 11:38:48;;;;;;;10.52;5.40;;;;;;;;;;5113935;27;20047;-72
2023/05/10 11:41:15;;;;;;;9.73;5.95;;;;;;;;;;5114993;27;20448;-73
2023/05/10 11:43:42;;;;;;;9.32;5.97;;;;;;;;;;5115236;27;20114;-73
2023/05/10 11:46:10;;;;;;;9.77;5.65;;;;;;;;;;5114131;27;20049;-74
2023/05/10 11:48:36;;;;;;;9.32;5.32;;;;;;;;;;5112622;27;20092;-73
2023/05/10 11:51:02;;;;;;;8.90;5.40;;;;;;;;;;5112760;27;20054;-73
2023/05/10 11:53:32;;;;;;;9.18;5.35;;;;;;;;;;5113749;27;20495;-73
2023/05/10 11:56:08;;;;;;;9.32;5.13;;;;;;;;;;5114101;27;20134;-72
2023/05/10 11:58:35;;;;;;;8.57;4.70;;;;;;;;;;5130628;27;20380;-72
2023/05/10 12:01:01;;;;;;;9.60;4.50;;;;;;;;;;5114065;27;20385;-73
2023/05/10 12:03:28;;;;;;;10.15;5.50;;;;;;;;;;5113780;27;20499;-72
2023/05/10 12:05:55;;;;;;;8.00;4.55;;;;;;;;;;5113665;27;20126;-72
2023/05/10 12:08:23;;;;;;;7.65;4.63;;;;;;;;;;5114206;27;20096;-73
2023/05/10 12:10:49;;;;;;;9.70;5.22;;;;;;;;;;5114242;27;20038;-72
2023/05/10 12:13:15;;;;;;;;;;;;;;;;;;5132493;27;20122;-72
2023/05/10 12:15:41;;;;;;;8.15;5.00;;;;;;;;;;5113488;27;19924;-72
2023/05/10 12:18:11;;;;;;;8.98;5.93;;;;;;;;;;5112672;27;20487;-72
2023/05/10 12:20:38;;;;;;;12.50;6.50;;;;;;;;;;5113043;27;20043;-71
2023/05/10 12:23:05;;;;;;;13.23;6.50;;;;;;;;;;5131933;27;20050;-71
2023/05/10 12:25:32;;;;;;;11.30;6.68;;;;;;;;;;5135876;27;20038;-72
2023/05/10 12:28:00;;;;;;;11.43;6.57;;;;;;;;;;5123050;27;20050;-72
2023/05/10 12:30:27;;;;;;;11.48;6.10;;;;;;;;;;5132557;27;20058;-72
2023/05/10 12:32:54;;;;;;;10.65;6.30;;;;;;;;;;5113002;27;20061;-73
2023/05/10 12:35:21;;;;;;;11.98;6.60;;;;;;;;;;5131451;27;20039;-72
2023/05/10 12:37:48;;;;;;;11.82;5.80;;;;;;;;;;5127286;27;20047;-72
2023/05/10 12:40:14;;;;;;;11.40;6.28;;;;;;;;;;5102571;28;20051;-72
2023/05/10 12:42:40;;;;;;;11.15;6.30;;;;;;;;;;5112221;27;20043;-72
2023/05/10 12:45:07;;;;;;;9.30;5.80;;;;;;;;;;5113599;27;20046;-72
2023/05/10 12:47:34;;;;;;;11.77;5.63;;;;;;;;;;5131355;27;20118;-73
2023/05/10 12:50:01;;;;;;;11.43;6.10;;;;;;;;;;5133035;27;20143;-71
2023/05/10 12:52:28;;;;;;;12.27;6.18;;;;;;;;;;5113376;27;20054;-72
2023/05/10 12:54:54;;;;;;;9.23;5.05;;;;;;;;;;5113555;27;20071;-72
2023/05/10 12:57:21;;;;;;;9.10;4.47;;;;;;;;;;5130749;27;20111;-71
2023/05/10 12:59:47;;;;;;;8.68;5.20;;;;;;;;;;5131041;27;20095;-72
2023/05/10 13:02:14;;;;;;;8.77;4.93;;;;;;;;;;5112425;27;20126;-74
2023/05/10 13:04:41;;;;;;;10.48;5.60;;;;;;;;;;5131268;27;20046;-72
2023/05/10 13:07:08;;;;;;;9.10;5.20;;;;;;;;;;5112499;27;20423;-72
2023/05/10 13:09:34;;;;;;;10.85;5.35;;;;;;;;;;5131928;27;20231;-72
2023/05/10 13:12:00;;;;;;;9.13;5.45;;;;;;;;;;5112585;28;20050;-72
2023/05/10 13:14:26;;;;;;;;;;;;;;;;;;5132333;27;20055;-72
2023/05/10 13:16:52;;;;;;;9.35;5.60;;;;;;;;;;5112882;27;19971;-72
2023/05/10 13:19:18;;;;;;;;;;;;;;;;;;5131819;27;20130;-72
2023/05/10 13:21:44;;;;;;;11.05;6.20;;;;;;;;;;5130779;27;20047;-72
2023/05/10 13:24:13;;;;;;;10.30;5.68;;;;;;;;;;5131781;27;20055;-72
2023/05/10 13:26:40;;;;;;;9.88;5.50;;;;;;;;;;5112913;27;20050;-75
2023/05/10 13:29:06;;;;;;;11.82;6.30;;;;;;;;;;5115718;27;20108;-72
2023/05/10 13:31:32;;;;;;;9.50;5.78;;;;;;;;;;5122946;27;20114;-72
2023/05/10 13:33:59;;;;;;;10.55;6.18;;;;;;;;;;5110921;27;20123;-71
2023/05/10 13:36:26;;;;;;;10.30;6.35;;;;;;;;;;5130786;27;20095;-72
2023/05/10 13:38:52;;;;;;;11.27;6.43;;;;;;;;;;5131008;27;20564;-72
2023/05/10 13:41:18;;;;;;;9.18;5.45;;;;;;;;;;5112810;27;20176;-72
2023/05/10 13:43:45;;;;;;;12.02;5.85;;;;;;;;;;5111950;27;20043;-73
2023/05/10 13:46:11;;;;;;;;;;;;;;;;;;5113639;27;20476;-72
2023/05/10 13:48:37;;;;;;;17.00;6.70;;;;;;;;;;5131202;27;19919;-72
2023/05/10 13:51:03;;;;;;;;;;;;;;;;;;5113013;28;20137;-72
2023/05/10 13:53:29;;;;;;;12.63;6.60;;;;;;;;;;5113600;28;19919;-73
2023/05/10 13:55:55;;;;;;;;;;;;;;;;;;5113550;28;20289;-72
2023/05/10 13:58:21;;;;;;;12.75;6.75;;;;;;;;;;5115054;28;19970;-72
2023/05/10 14:00:47;;;;;;;;;;;;;;;;;;5113377;28;20140;-72
2023/05/10 14:03:13;;;;;;;11.85;6.38;;;;;;;;;;5112795;28;20368;-72
2023/05/10 14:05:39;;;;;;;;;;;;;;;;;;5131378;28;20134;-72
2023/05/10 14:08:06;;;;;;;10.63;6.15;;;;;;;;;;5131610;27;19974;-73
2023/05/10 14:10:32;;;;;;;11.15;6.20;;;;;;;;;;5114461;28;20036;-73
2023/05/10 14:12:58;;;;;;;;;;;;;;;;;;5129856;28;20078;-74
2023/05/10 14:15:24;;;;;;;14.48;7.32;;;;;;;;;;5097719;27;19926;-75
2023/05/10 14:17:50;;;;;;;12.05;7.10;;;;;;;;;;5136098;27;20117;-74
2023/05/10 14:20:16;;;;;;;;;;;;;;;;;;5117499;27;20050;-74
2023/05/10 14:22:42;;;;;;;11.80;6.20;;;;;;;;;;5126777;27;19949;-74
2023/05/10 14:25:08;;;;;;;;;;;;;;;;;;5136474;27;20054;-74
2023/05/10 14:27:34;;;;;;;10.35;5.32;;;;;;;;;;5137014;27;19930;-75
2023/05/10 14:30:00;;;;;;;;;;;;;;;;;;5137174;27;20042;-75
2023/05/10 14:32:27;;;;;;;9.05;5.03;;;;;;;;;;5136959;27;20498;-72
2023/05/10 14:34:53;;;;;;;10.32;5.05;;;;;;;;;;5155700;27;20429;-72
2023/05/10 14:37:19;;;;;;;10.60;5.00;;;;;;;;;;5118624;27;20476;-72
2023/05/10 14:39:45;;;;;;;;;;;;;;;;;;5149846;27;20108;-75
2023/05/10 14:42:12;;;;;;;8.75;4.57;;;;;;;;;;5120472;27;19931;-73
2023/05/10 14:44:38;;;;;;;9.57;4.63;;;;;;;;;;5108838;27;20556;-73
2023/05/10 14:47:04;;;;;;;;;;;;;;;;;;5103308;28;20122;-72
2023/05/10 14:49:30;;;;;;;9.38;4.75;;;;;;;;;;5123676;27;20003;-72
2023/05/10 14:51:56;;;;;;;;;;;;;;;;;;5121259;27;20036;-72
2023/05/10 14:54:22;;;;;;;9.55;4.72;;;;;;;;;;5105239;27;20013;-72
2023/05/10 14:56:49;;;;;;;;;;;;;;;;;;5120939;27;20039;-75
2023/05/10 14:59:16;;;;;;;10.00;4.95;;;;;;;;;;5131814;27;19923;-73